Weather Data

Pearl Creek Farm: 8878 N Farm Road 75, Walnut Grove MO 65770

<== Previous Day (Tuesday 29 Aug 2017) | Next Day (Thursday 31 Aug 2017) ==>

Summary Precipitation Data For Wednesday 30 August 2017

ElementValueUnits
PrecipitationT
Notes(none)
SourcePearl Creek Farm

Summary Temperature Data For Wednesday 30 August 2017

ElementValueUnits
High Temperature82 oF
Low Temperature60 oF
Average Temperature72 oF
High Humidity96 %
Low Humidity51 %
Average Humidity75 %
SourceSpringfield-Branson National Airport (SGF)

Detail Temperature Data For Wednesday 30 August 2017

Date / TimeTemp (F)RH (%)Dew Pt (F)Report Date / TimeSource
2017-08-30 00:52:00 62 96 61.0 2017-12-29 17:00:26.17417 Springfield-Branson National Airport (SGF)
2017-08-30 01:52:00 63 93 61.0 2017-12-29 17:00:26.17417 Springfield-Branson National Airport (SGF)
2017-08-30 02:52:00 62 96 61.0 2017-12-29 17:00:26.17417 Springfield-Branson National Airport (SGF)
2017-08-30 03:52:00 62 96 61.0 2017-12-29 17:00:26.17417 Springfield-Branson National Airport (SGF)
2017-08-30 04:52:00 62 93 60.0 2017-12-29 17:00:26.17417 Springfield-Branson National Airport (SGF)
2017-08-30 05:52:00 60 96 59.0 2017-12-29 17:00:26.17417 Springfield-Branson National Airport (SGF)
2017-08-30 06:52:00 66 87 62.0 2017-12-29 17:00:26.17417 Springfield-Branson National Airport (SGF)
2017-08-30 07:52:00 71 79 64.0 2017-12-29 17:00:26.17417 Springfield-Branson National Airport (SGF)
2017-08-30 08:52:00 75 71 65.0 2017-12-29 17:00:26.17417 Springfield-Branson National Airport (SGF)
2017-08-30 09:52:00 77 66 65.0 2017-12-29 17:00:26.17417 Springfield-Branson National Airport (SGF)
2017-08-30 10:52:00 79 62 65.0 2017-12-29 17:00:26.17417 Springfield-Branson National Airport (SGF)
2017-08-30 11:52:00 81 54 63.0 2017-12-29 17:00:26.17417 Springfield-Branson National Airport (SGF)
2017-08-30 12:52:00 81 54 63.0 2017-12-29 17:00:26.17417 Springfield-Branson National Airport (SGF)
2017-08-30 13:52:00 82 51 62.0 2017-12-29 17:00:26.17417 Springfield-Branson National Airport (SGF)
2017-08-30 14:52:00 81 51 61.0 2017-12-29 17:00:26.17417 Springfield-Branson National Airport (SGF)
2017-08-30 15:52:00 79 56 62.0 2017-12-29 17:00:26.17417 Springfield-Branson National Airport (SGF)
2017-08-30 16:52:00 80 52 61.0 2017-12-29 17:00:26.17417 Springfield-Branson National Airport (SGF)
2017-08-30 17:52:00 78 60 63.0 2017-12-29 17:00:26.17417 Springfield-Branson National Airport (SGF)
2017-08-30 18:52:00 73 71 63.0 2017-12-29 17:00:26.17417 Springfield-Branson National Airport (SGF)
2017-08-30 19:52:00 71 79 64.0 2017-12-29 17:00:26.17417 Springfield-Branson National Airport (SGF)
2017-08-30 20:52:00 70 82 64.0 2017-12-29 17:00:26.17417 Springfield-Branson National Airport (SGF)
2017-08-30 21:52:00 69 84 64.0 2017-12-29 17:00:26.17417 Springfield-Branson National Airport (SGF)
2017-08-30 22:52:00 68 84 63.0 2017-12-29 17:00:26.17417 Springfield-Branson National Airport (SGF)
2017-08-30 23:52:00 67 87 63.0 2017-12-29 17:00:26.17417 Springfield-Branson National Airport (SGF)

A total of 24 rows are displayed.